Search for airport 
image banner adimage banner adimage banner ad
image banner ad

98PA - Pleasant Hill

Located in Portersville, United States

ICAO - 98PA, IATA -

Data provided by Airmate  

General information

Coordinates: N40°53'40" W80°10'52"
Elevation is 1180 feet MSL.
Magnetic variation is -08° East
View others Airports in Pennsylvania

Operational data

Special qualification required
Current time UTC:
Current local time:
Weather at : KBVI - Beaver County ( 22 km )
METAR: KBVI 152315Z AUTO 32010G16KT 10SM CLR 20/09 A2996 RMK AO2 T01990093
TAF: KBVI 151720Z 1518/1618 33010G20KT P6SM BKN040 FM152300 33008KT P6SM SCT120 FM160300 32005KT P6SM SKC
View NOTAMs / SUP AIP / TFR affecting this airport [VIEW]
Communications frequencies: [VIEW]

Runways:

RWY identifierQFULength (ft)Width (ft)SurfaceLDA (ft)
NW1200100GRASS
SE1200100GRASS

Airport contact information

Address: Portersville United States

Satellite view of 98PA